createdAt,value
2019-01-23T00:01:45.108Z,99.60
2019-01-23T00:04:15.258Z,99.70
2019-01-23T00:06:45.490Z,99.60
2019-01-23T00:09:15.745Z,99.50
2019-01-23T00:11:46.108Z,99.20
2019-01-23T00:14:16.351Z,99.10
2019-01-23T00:16:46.614Z,99.70
2019-01-23T00:19:16.955Z,99.90
2019-01-23T00:21:47.187Z,99.90
2019-01-23T00:24:17.362Z,99.80
2019-01-23T00:26:47.630Z,99.80
2019-01-23T00:29:17.869Z,99.90
2019-01-23T00:31:48.082Z,99.90
2019-01-23T00:34:18.320Z,99.90
2019-01-23T00:36:48.515Z,99.90
2019-01-23T00:39:18.680Z,99.80
2019-01-23T00:41:48.847Z,99.70
2019-01-23T00:44:18.998Z,99.70
2019-01-23T00:46:49.229Z,99.90
2019-01-23T00:49:19.409Z,99.80
2019-01-23T00:51:49.570Z,99.70
2019-01-23T00:54:20.077Z,99.80
2019-01-23T00:56:50.250Z,99.90
2019-01-23T00:59:20.470Z,99.90
2019-01-23T01:01:50.711Z,99.90
2019-01-23T01:04:20.976Z,99.90
2019-01-23T01:06:51.233Z,99.90
2019-01-23T01:09:22.357Z,99.90
2019-01-23T01:11:52.461Z,99.90
2019-01-23T01:14:22.667Z,99.90
2019-01-23T01:16:52.934Z,99.90
2019-01-23T01:19:23.130Z,99.90
2019-01-23T01:21:53.449Z,99.90
2019-01-23T01:24:23.513Z,99.90
2019-01-23T01:26:53.724Z,99.90
2019-01-23T01:29:23.816Z,99.90
2019-01-23T01:31:54.110Z,99.90
2019-01-23T01:34:24.290Z,99.90
2019-01-23T01:36:54.818Z,99.90
2019-01-23T01:39:24.897Z,99.90
2019-01-23T01:41:54.981Z,99.90
2019-01-23T01:44:25.243Z,99.90
2019-01-23T01:46:55.396Z,99.90
2019-01-23T01:49:25.534Z,99.90
2019-01-23T01:51:55.797Z,99.90
2019-01-23T01:54:26.818Z,99.90
2019-01-23T01:56:57.026Z,99.90
2019-01-23T01:59:27.193Z,99.70
2019-01-23T02:01:57.424Z,99.60
2019-01-23T02:04:27.524Z,99.30
2019-01-23T02:06:57.815Z,99.40
2019-01-23T02:09:27.962Z,99.40
2019-01-23T02:11:58.281Z,99.40
2019-01-23T02:14:28.595Z,99.50
2019-01-23T02:16:58.811Z,99.60
2019-01-23T02:19:29.034Z,99.60
2019-01-23T02:21:59.327Z,99.40
2019-01-23T02:24:29.639Z,99.20
2019-01-23T02:26:59.826Z,99.30
2019-01-23T02:29:29.981Z,99.20
2019-01-23T02:32:00.135Z,99.20
2019-01-23T02:34:30.202Z,99.40
2019-01-23T02:37:00.500Z,99.40
2019-01-23T02:39:30.570Z,99.30
2019-01-23T02:42:00.767Z,99.20
2019-01-23T02:44:31.005Z,99.20
2019-01-23T02:47:01.132Z,99.20
2019-01-23T02:49:31.367Z,99.10
2019-01-23T02:52:01.620Z,98.80
2019-01-23T02:54:31.698Z,99.00
2019-01-23T02:57:01.967Z,99.10
2019-01-23T02:59:32.239Z,99.10
2019-01-23T03:02:02.401Z,99.00
2019-01-23T03:04:32.777Z,98.90
2019-01-23T03:07:02.935Z,98.70
2019-01-23T03:09:33.242Z,98.80
2019-01-23T03:12:03.458Z,98.80
2019-01-23T03:14:33.653Z,98.50
2019-01-23T03:17:03.872Z,98.70
2019-01-23T03:19:34.222Z,98.50
2019-01-23T03:22:04.325Z,98.40
2019-01-23T03:24:34.518Z,98.50
2019-01-23T03:27:04.768Z,98.50
2019-01-23T03:29:34.967Z,98.50
2019-01-23T03:32:05.130Z,98.50
2019-01-23T03:34:35.351Z,98.50
2019-01-23T03:37:05.917Z,98.00
2019-01-23T03:39:36.022Z,98.20
2019-01-23T03:42:06.479Z,98.00
2019-01-23T03:44:36.692Z,98.10
2019-01-23T03:47:06.930Z,98.10
2019-01-23T03:49:37.056Z,98.10
2019-01-23T03:52:07.311Z,98.40
2019-01-23T03:54:38.398Z,98.00
2019-01-23T03:57:08.562Z,98.10
2019-01-23T03:59:38.779Z,98.20
2019-01-23T04:02:08.870Z,98.10
2019-01-23T04:04:39.058Z,98.00
2019-01-23T04:07:09.353Z,97.90
2019-01-23T04:09:39.626Z,97.90
2019-01-23T04:12:09.745Z,97.80
2019-01-23T04:14:39.952Z,98.10
2019-01-23T04:17:10.158Z,97.90
2019-01-23T04:19:40.385Z,97.80
2019-01-23T04:22:10.470Z,97.80
2019-01-23T04:24:40.527Z,97.60
2019-01-23T04:27:10.802Z,97.60
2019-01-23T04:29:41.033Z,97.40
2019-01-23T04:32:11.349Z,97.50
2019-01-23T04:34:41.490Z,97.90
2019-01-23T04:37:11.893Z,97.40
2019-01-23T04:39:42.129Z,97.20
2019-01-23T04:42:12.283Z,97.40
2019-01-23T04:44:42.478Z,97.30
2019-01-23T04:47:12.791Z,97.20
2019-01-23T04:49:42.988Z,97.30
2019-01-23T04:52:33.173Z,97.40
2019-01-23T04:55:03.429Z,97.50
2019-01-23T04:57:33.574Z,97.40
2019-01-23T05:00:04.565Z,97.50
2019-01-23T05:02:34.862Z,97.30
2019-01-23T05:05:05.861Z,97.10
2019-01-23T05:07:36.150Z,97.40
2019-01-23T05:10:06.577Z,97.10
2019-01-23T05:12:36.745Z,97.10
2019-01-23T05:15:06.917Z,97.20
2019-01-23T05:17:38.275Z,97.00
2019-01-23T05:20:09.145Z,97.30
2019-01-23T05:22:39.399Z,97.30
2019-01-23T05:25:09.609Z,97.10
2019-01-23T05:27:39.793Z,97.20
2019-01-23T05:30:16.505Z,97.10
2019-01-23T05:32:46.657Z,97.20
2019-01-23T05:35:17.712Z,97.10
2019-01-23T05:37:47.958Z,97.20
2019-01-23T05:40:18.079Z,97.40
2019-01-23T05:42:48.338Z,97.10
2019-01-23T05:45:18.506Z,97.00
2019-01-23T05:47:48.768Z,96.90
2019-01-23T05:50:18.966Z,96.90
2019-01-23T05:52:49.458Z,96.90
2019-01-23T05:55:19.764Z,97.00
2019-01-23T05:57:49.836Z,97.10
2019-01-23T06:00:21.414Z,97.20
2019-01-23T06:02:52.507Z,97.00
2019-01-23T06:05:22.713Z,97.20
2019-01-23T06:07:52.883Z,97.00
2019-01-23T06:10:23.074Z,96.90
2019-01-23T06:12:53.343Z,96.90
2019-01-23T06:15:23.611Z,97.10
2019-01-23T06:17:53.754Z,97.00
2019-01-23T06:20:23.972Z,97.00
2019-01-23T06:22:54.207Z,97.00
2019-01-23T06:25:24.503Z,97.10
2019-01-23T06:27:54.842Z,96.80
2019-01-23T06:30:26.236Z,96.90
2019-01-23T06:32:56.503Z,97.10
2019-01-23T06:35:26.691Z,97.20
2019-01-23T06:37:56.977Z,97.30
2019-01-23T06:40:27.213Z,97.10
2019-01-23T06:42:57.389Z,97.20
2019-01-23T06:45:27.572Z,96.90
2019-01-23T06:47:57.805Z,97.00
2019-01-23T06:50:28.053Z,97.10
2019-01-23T06:52:58.206Z,97.20
2019-01-23T06:55:28.362Z,97.10
2019-01-23T06:57:58.521Z,97.10
2019-01-23T07:00:28.726Z,97.10
2019-01-23T07:02:59.066Z,97.10
2019-01-23T07:05:29.267Z,97.00
2019-01-23T07:07:59.522Z,96.90
2019-01-23T07:10:29.663Z,96.80
2019-01-23T07:12:59.903Z,96.80
2019-01-23T07:15:30.086Z,97.00
2019-01-23T07:18:00.319Z,97.00
2019-01-23T07:20:30.411Z,96.90
2019-01-23T07:23:00.598Z,97.00
2019-01-23T07:25:30.874Z,96.90
2019-01-23T07:28:01.127Z,96.90
2019-01-23T07:30:41.922Z,97.00
2019-01-23T07:33:12.174Z,97.00
2019-01-23T07:35:42.439Z,97.10
2019-01-23T07:38:12.605Z,96.90
2019-01-23T07:40:42.899Z,97.00
2019-01-23T07:43:14.194Z,97.00
2019-01-23T07:45:44.510Z,97.00
2019-01-23T07:48:14.621Z,97.00
2019-01-23T07:50:44.839Z,97.00
2019-01-23T07:53:14.965Z,96.80
2019-01-23T07:55:46.154Z,96.70
2019-01-23T07:58:16.504Z,96.80
2019-01-23T08:00:46.665Z,96.80
2019-01-23T08:03:17.107Z,97.00
2019-01-23T08:05:47.313Z,96.60
2019-01-23T08:08:17.483Z,96.90
2019-01-23T08:10:57.134Z,96.50
2019-01-23T08:13:27.306Z,96.70
2019-01-23T08:15:57.549Z,96.50
2019-01-23T08:18:27.681Z,96.60
2019-01-23T08:20:57.993Z,96.50
2019-01-23T08:23:28.170Z,96.60
2019-01-23T08:25:58.352Z,96.60
2019-01-23T08:28:28.665Z,96.40
2019-01-23T08:30:58.956Z,96.40
2019-01-23T08:33:29.190Z,96.30
2019-01-23T08:35:59.343Z,96.10
2019-01-23T08:38:29.527Z,95.70
2019-01-23T08:40:59.714Z,95.50
2019-01-23T08:43:29.958Z,95.60
2019-01-23T08:46:01.291Z,95.60
2019-01-23T08:48:31.486Z,95.70
2019-01-23T08:51:05.983Z,95.50
2019-01-23T08:53:39.840Z,95.40
2019-01-23T08:56:10.046Z,95.20
2019-01-23T08:58:40.287Z,95.40
2019-01-23T09:01:10.584Z,95.20
2019-01-23T09:03:40.795Z,95.00
2019-01-23T09:06:11.353Z,95.00
2019-01-23T09:08:41.671Z,94.80
2019-01-23T09:11:11.726Z,94.80
2019-01-23T09:13:41.880Z,94.40
2019-01-23T09:16:12.249Z,94.50
2019-01-23T09:18:42.446Z,94.00
2019-01-23T09:21:12.697Z,94.00
2019-01-23T09:23:43.178Z,93.80
2019-01-23T09:26:13.472Z,93.80
2019-01-23T09:28:43.622Z,93.90
2019-01-23T09:31:34.554Z,93.40
2019-01-23T09:34:15.242Z,92.90
2019-01-23T09:37:38.323Z,92.80
2019-01-23T09:40:36.567Z,92.70
2019-01-23T09:43:20.426Z,92.00
2019-01-23T09:46:16.654Z,92.10
2019-01-23T09:49:24.319Z,91.00
2019-01-23T09:52:31.834Z,91.00
2019-01-23T09:55:02.229Z,91.20
2019-01-23T09:57:35.285Z,91.70
2019-01-23T10:00:08.651Z,91.80
2019-01-23T10:02:39.015Z,92.20
2019-01-23T10:05:09.440Z,92.40
2019-01-23T10:07:39.674Z,92.40
2019-01-23T10:10:12.152Z,91.90
2019-01-23T10:12:42.476Z,91.90
2019-01-23T10:15:22.198Z,92.20
2019-01-23T10:17:54.329Z,92.10
2019-01-23T10:20:24.694Z,92.30
2019-01-23T10:22:57.551Z,92.30
2019-01-23T10:25:34.867Z,92.60
2019-01-23T10:28:05.262Z,92.30
2019-01-23T10:30:35.514Z,92.50
2019-01-23T10:33:05.891Z,92.50
2019-01-23T10:35:36.407Z,91.60
2019-01-23T10:38:07.087Z,91.90
2019-01-23T10:40:38.653Z,92.10
2019-01-23T10:43:14.136Z,92.30
2019-01-23T10:45:46.179Z,92.00
2019-01-23T10:48:16.435Z,92.20
2019-01-23T10:50:46.736Z,91.90
2019-01-23T10:53:17.091Z,92.00
2019-01-23T10:55:47.457Z,92.30
2019-01-23T10:58:18.973Z,92.10
2019-01-23T11:00:49.362Z,92.10
2019-01-23T11:03:19.634Z,91.90
2019-01-23T11:05:50.013Z,92.00
2019-01-23T11:08:20.343Z,92.10
2019-01-23T11:10:50.778Z,92.30
2019-01-23T11:13:21.188Z,92.00
2019-01-23T11:15:51.533Z,91.90
2019-01-23T11:18:21.943Z,91.80
2019-01-23T11:20:52.362Z,91.60
2019-01-23T11:23:22.681Z,92.00
2019-01-23T11:25:53.051Z,91.70
2019-01-23T11:28:23.442Z,91.10
2019-01-23T11:30:53.884Z,91.10
2019-01-23T11:33:24.397Z,91.00
2019-01-23T11:35:54.672Z,90.10
2019-01-23T11:38:25.619Z,90.20
2019-01-23T11:40:56.232Z,90.10
2019-01-23T11:43:26.537Z,90.00
2019-01-23T11:45:56.815Z,89.50
2019-01-23T11:48:27.291Z,89.20
2019-01-23T11:50:57.642Z,89.40
2019-01-23T11:53:27.979Z,88.60
2019-01-23T11:55:58.305Z,87.90
2019-01-23T11:58:28.832Z,87.90
2019-01-23T12:00:59.147Z,88.70
2019-01-23T12:03:29.521Z,89.30
2019-01-23T12:05:59.773Z,89.00
2019-01-23T12:08:30.248Z,88.70
2019-01-23T12:11:00.572Z,89.10
2019-01-23T12:13:30.940Z,88.80
2019-01-23T12:16:01.253Z,88.60
2019-01-23T12:18:31.551Z,87.60
2019-01-23T12:21:02.133Z,88.10
2019-01-23T12:23:32.485Z,88.40
2019-01-23T12:26:02.780Z,88.20
2019-01-23T12:28:33.104Z,87.10
2019-01-23T12:31:03.446Z,86.90
2019-01-23T12:33:33.802Z,87.60
2019-01-23T12:36:04.291Z,86.50
2019-01-23T12:38:34.596Z,85.60
2019-01-23T12:41:05.200Z,84.70
2019-01-23T12:43:35.646Z,84.90
2019-01-23T12:46:06.001Z,84.10
2019-01-23T12:48:36.632Z,84.30
2019-01-23T12:51:06.974Z,83.80
2019-01-23T12:53:38.415Z,84.00
2019-01-23T12:56:08.808Z,84.10
2019-01-23T12:58:39.215Z,85.40
2019-01-23T13:01:09.621Z,83.90
2019-01-23T13:03:39.995Z,83.90
2019-01-23T13:06:10.387Z,84.30
2019-01-23T13:08:40.771Z,84.00
2019-01-23T13:11:11.268Z,83.20
2019-01-23T13:13:41.661Z,83.50
2019-01-23T13:16:11.990Z,83.00
2019-01-23T13:18:42.357Z,82.50
2019-01-23T13:21:13.036Z,82.50
2019-01-23T13:23:43.521Z,82.30
2019-01-23T13:26:13.834Z,82.50
2019-01-23T13:28:44.107Z,81.90
2019-01-23T13:31:14.467Z,82.90
2019-01-23T13:33:44.746Z,83.00
2019-01-23T13:36:15.148Z,82.00
2019-01-23T13:38:45.615Z,82.50
2019-01-23T13:41:17.143Z,81.90
2019-01-23T13:43:47.393Z,81.40
2019-01-23T13:46:17.765Z,80.20
2019-01-23T13:48:48.286Z,80.30
2019-01-23T13:51:18.644Z,80.70
2019-01-23T13:53:49.129Z,81.60
2019-01-23T13:56:19.623Z,82.00
2019-01-23T13:58:50.040Z,82.00
2019-01-23T14:01:20.398Z,82.20
2019-01-23T14:03:50.761Z,81.60
2019-01-23T14:06:21.075Z,81.90
2019-01-23T14:08:51.467Z,82.30
2019-01-23T14:11:21.809Z,82.50
2019-01-23T14:13:52.241Z,82.90
2019-01-23T14:16:22.478Z,82.50
2019-01-23T14:18:52.838Z,82.60
2019-01-23T14:21:23.184Z,83.10
2019-01-23T14:23:53.772Z,82.80
2019-01-23T14:26:24.007Z,83.10
2019-01-23T14:28:54.375Z,84.00
2019-01-23T14:31:24.868Z,83.80
2019-01-23T14:33:55.184Z,84.00
2019-01-23T14:36:25.525Z,83.60
2019-01-23T14:38:55.830Z,83.20
2019-01-23T14:41:26.222Z,83.90
2019-01-23T14:43:56.608Z,84.00
2019-01-23T14:46:26.966Z,83.40
2019-01-23T14:48:57.320Z,83.70
2019-01-23T14:51:27.616Z,83.90
2019-01-23T14:53:57.902Z,84.10
2019-01-23T14:56:28.237Z,84.10
2019-01-23T14:58:59.510Z,84.00
2019-01-23T15:01:29.793Z,84.70
2019-01-23T15:04:00.072Z,85.50
2019-01-23T15:06:30.561Z,85.90
2019-01-23T15:09:00.972Z,86.70
2019-01-23T15:11:32.915Z,86.90
2019-01-23T15:14:03.158Z,86.50
2019-01-23T15:16:33.442Z,87.90
2019-01-23T15:19:03.973Z,88.10
2019-01-23T15:21:34.230Z,88.60
2019-01-23T15:24:04.686Z,88.90
2019-01-23T15:26:34.940Z,89.30
2019-01-23T15:29:06.484Z,89.40
2019-01-23T15:31:36.837Z,88.60
2019-01-23T15:34:07.369Z,88.70
2019-01-23T15:36:37.629Z,87.90
2019-01-23T15:39:09.253Z,87.40
2019-01-23T15:41:39.547Z,87.80
2019-01-23T15:44:10.904Z,88.70
2019-01-23T15:46:41.199Z,87.70
2019-01-23T15:49:11.443Z,87.80
2019-01-23T15:51:41.823Z,88.00
2019-01-23T15:54:12.014Z,88.50
2019-01-23T15:56:42.294Z,87.70
2019-01-23T15:59:13.433Z,88.10
2019-01-23T16:01:43.671Z,88.10
2019-01-23T16:04:13.912Z,88.20
2019-01-23T16:06:44.211Z,88.50
2019-01-23T16:09:14.518Z,89.00
2019-01-23T16:11:44.795Z,89.00
2019-01-23T16:14:15.082Z,88.90
2019-01-23T16:16:45.317Z,90.20
2019-01-23T16:19:15.678Z,90.10
2019-01-23T16:21:46.032Z,90.20
2019-01-23T16:24:16.317Z,90.50
2019-01-23T16:26:46.518Z,90.50
2019-01-23T16:29:16.878Z,90.50
2019-01-23T16:31:47.224Z,90.50
2019-01-23T16:34:17.450Z,90.70
2019-01-23T16:36:47.706Z,90.70
2019-01-23T16:39:18.005Z,91.00
2019-01-23T16:41:48.321Z,90.80
2019-01-23T16:44:18.537Z,90.90
2019-01-23T16:46:48.787Z,90.80
2019-01-23T16:49:19.009Z,90.80
2019-01-23T16:51:51.414Z,90.80
2019-01-23T16:54:21.435Z,90.80
2019-01-23T16:56:51.803Z,90.90
2019-01-23T16:59:23.110Z,91.00
2019-01-23T17:01:53.434Z,91.20
2019-01-23T17:04:23.723Z,91.30
2019-01-23T17:06:54.037Z,91.60
2019-01-23T17:09:24.476Z,91.50
2019-01-23T17:11:54.811Z,91.60
2019-01-23T17:14:25.181Z,91.90
2019-01-23T17:16:55.474Z,92.00
2019-01-23T17:19:25.874Z,92.10
2019-01-23T17:21:56.089Z,92.40
2019-01-23T17:24:26.351Z,92.60
2019-01-23T17:26:56.675Z,92.70
2019-01-23T17:29:30.732Z,92.80
2019-01-23T17:31:58.923Z,93.20
2019-01-23T17:34:29.313Z,93.00
2019-01-23T17:36:59.824Z,93.10
2019-01-23T17:39:30.058Z,93.30
2019-01-23T17:42:00.393Z,93.30
2019-01-23T17:44:30.833Z,93.50
2019-01-23T17:47:01.542Z,93.60
2019-01-23T17:49:32.115Z,93.70
2019-01-23T17:52:02.782Z,93.90
2019-01-23T17:54:33.563Z,93.90
2019-01-23T17:57:04.124Z,93.80
2019-01-23T17:59:35.491Z,94.20
2019-01-23T18:02:05.838Z,94.10
2019-01-23T18:04:36.317Z,94.10
2019-01-23T18:07:06.713Z,94.30
2019-01-23T18:09:36.923Z,94.10
2019-01-23T18:12:07.138Z,94.10
2019-01-23T18:14:40.462Z,94.10
2019-01-23T18:17:12.575Z,94.00
2019-01-23T18:19:42.922Z,94.00
2019-01-23T18:22:14.495Z,93.80
2019-01-23T18:24:45.758Z,93.90
2019-01-23T18:27:16.349Z,93.80
2019-01-23T18:29:46.891Z,93.70
2019-01-23T18:32:18.406Z,93.60
2019-01-23T18:35:19.960Z,93.60
2019-01-23T18:38:32.686Z,93.60
2019-01-23T18:41:45.999Z,93.80
2019-01-23T18:45:06.617Z,94.00
2019-01-23T18:48:15.888Z,93.80
2019-01-23T18:51:18.544Z,93.90
2019-01-23T18:53:48.907Z,94.20
2019-01-23T18:56:20.484Z,94.40
2019-01-23T18:58:50.774Z,94.30
2019-01-23T19:01:21.205Z,94.50
2019-01-23T19:03:51.491Z,94.30
2019-01-23T19:06:21.958Z,94.30
2019-01-23T19:08:52.294Z,94.30
2019-01-23T19:11:22.940Z,94.50
2019-01-23T19:13:53.258Z,94.60
2019-01-23T19:16:23.593Z,94.40
2019-01-23T19:18:55.963Z,94.30
2019-01-23T19:21:26.203Z,94.30
2019-01-23T19:23:56.591Z,94.30
2019-01-23T19:26:26.800Z,94.40
2019-01-23T19:28:57.267Z,94.40
2019-01-23T19:31:29.032Z,94.30
2019-01-23T19:34:03.741Z,94.40
2019-01-23T19:36:34.070Z,94.40
2019-01-23T19:39:07.122Z,94.30
2019-01-23T19:41:38.991Z,94.30
2019-01-23T19:44:09.305Z,94.40
2019-01-23T19:46:39.575Z,94.40
2019-01-23T19:49:10.101Z,94.30
2019-01-23T19:51:40.452Z,94.20
2019-01-23T19:54:10.891Z,94.40
2019-01-23T19:56:41.377Z,94.80
2019-01-23T19:59:11.668Z,94.60
2019-01-23T20:01:41.907Z,94.40
2019-01-23T20:04:12.342Z,94.50
2019-01-23T20:06:42.625Z,94.60
2019-01-23T20:09:13.020Z,94.40
2019-01-23T20:11:43.394Z,94.40
2019-01-23T20:14:13.798Z,94.50
2019-01-23T20:16:44.082Z,94.20
2019-01-23T20:19:15.431Z,94.20
2019-01-23T20:21:46.006Z,93.80
2019-01-23T20:24:16.398Z,93.80
2019-01-23T20:26:47.684Z,94.00
2019-01-23T20:29:18.079Z,93.80
2019-01-23T20:31:48.441Z,93.80
2019-01-23T20:34:18.708Z,93.60
2019-01-23T20:36:49.082Z,93.20
2019-01-23T20:39:19.294Z,92.80
2019-01-23T20:41:49.694Z,92.50
2019-01-23T20:44:21.002Z,92.70
2019-01-23T20:46:51.381Z,92.60
2019-01-23T20:49:21.747Z,92.50
2019-01-23T20:51:52.118Z,92.60
2019-01-23T20:54:22.390Z,92.50
2019-01-23T20:56:52.592Z,92.30
2019-01-23T20:59:22.927Z,92.40
2019-01-23T21:01:53.270Z,92.20
2019-01-23T21:04:23.712Z,92.20
2019-01-23T21:06:53.975Z,92.10
2019-01-23T21:09:24.169Z,92.10
2019-01-23T21:11:54.418Z,92.30
2019-01-23T21:14:24.712Z,92.40
2019-01-23T21:16:55.066Z,92.50
2019-01-23T21:19:25.328Z,92.50
2019-01-23T21:21:55.599Z,92.20
2019-01-23T21:24:25.874Z,92.10
2019-01-23T21:26:56.227Z,92.40
2019-01-23T21:29:26.570Z,92.40
2019-01-23T21:31:56.918Z,92.50
2019-01-23T21:34:27.157Z,92.40
2019-01-23T21:36:57.587Z,92.40
2019-01-23T21:39:27.787Z,92.50
2019-01-23T21:41:57.992Z,92.50
2019-01-23T21:44:28.200Z,92.70
2019-01-23T21:46:58.762Z,92.50
2019-01-23T21:49:28.988Z,92.80
2019-01-23T21:51:59.237Z,92.70
2019-01-23T21:54:29.725Z,92.60
2019-01-23T21:57:01.197Z,92.80
2019-01-23T21:59:31.381Z,92.80
2019-01-23T22:02:01.558Z,93.00
2019-01-23T22:04:31.872Z,92.90
2019-01-23T22:07:03.213Z,92.70
2019-01-23T22:09:33.415Z,92.70
2019-01-23T22:12:03.678Z,92.70
2019-01-23T22:14:33.906Z,93.00
2019-01-23T22:17:04.322Z,92.70
2019-01-23T22:19:34.505Z,92.90
2019-01-23T22:22:04.986Z,93.00
2019-01-23T22:24:35.177Z,92.70
2019-01-23T22:27:05.549Z,92.90
2019-01-23T22:29:35.747Z,92.90
2019-01-23T22:32:06.098Z,92.70
2019-01-23T22:34:37.378Z,92.90
2019-01-23T22:37:08.390Z,92.80
2019-01-23T22:39:38.562Z,93.10
2019-01-23T22:42:08.913Z,93.10
2019-01-23T22:44:39.323Z,93.00
2019-01-23T22:47:09.496Z,93.20
2019-01-23T22:49:40.033Z,93.20
2019-01-23T22:52:13.245Z,92.90
2019-01-23T22:54:43.515Z,92.90
2019-01-23T22:57:15.281Z,92.90
2019-01-23T22:59:46.654Z,93.00
2019-01-23T23:02:17.011Z,93.20
2019-01-23T23:04:47.271Z,93.20
2019-01-23T23:07:17.546Z,93.20
2019-01-23T23:09:47.709Z,93.00
2019-01-23T23:12:17.908Z,93.10
2019-01-23T23:14:48.322Z,93.00
2019-01-23T23:17:18.541Z,93.00
2019-01-23T23:19:48.744Z,93.00
2019-01-23T23:22:19.116Z,92.90
2019-01-23T23:24:49.426Z,92.80
2019-01-23T23:27:19.730Z,92.80
2019-01-23T23:29:50.002Z,92.60
2019-01-23T23:32:20.162Z,92.80
2019-01-23T23:34:50.584Z,92.90
2019-01-23T23:37:20.805Z,92.90
2019-01-23T23:39:52.041Z,92.90
2019-01-23T23:42:22.272Z,92.80
2019-01-23T23:44:52.417Z,93.00
2019-01-23T23:47:22.573Z,93.00
2019-01-23T23:49:52.814Z,93.20
2019-01-23T23:52:22.998Z,92.80
2019-01-23T23:54:53.166Z,92.60
2019-01-23T23:57:23.378Z,92.60
2019-01-23T23:59:53.592Z,93.00
